📊 Raw Sensor Data
Showing records 38351 to 38375 of 84,928 total
| ID | Distance (ft) | Battery V | Battery A | Int Temp (°F) | Int Humid (%) | Ext Temp (°F) | Solar V | RSSI | SNR | Time Stamp |
|---|---|---|---|---|---|---|---|---|---|---|
| 46590 | 14.9 | 3.94 | -10 | 72 | 55 | 68 | 3.20 | -66 | 9 | 07/17/2025 08:30 PM |
| 46589 | 14.9 | 3.96 | 0 | 77 | 54 | 72 | 4.50 | -65 | 7 | 07/17/2025 08:15 PM |
| 46588 | 15.0 | 3.99 | 0 | 82 | 53 | 76 | 4.50 | -71 | 7 | 07/17/2025 08:00 PM |
| 46587 | 15.0 | 4.00 | 6 | 85 | 52 | 77 | 4.50 | -71 | 8 | 07/17/2025 07:45 PM |
| 46586 | 15.0 | 4.01 | 9 | 88 | 51 | 79 | 4.50 | -71 | 8 | 07/17/2025 07:30 PM |
| 46585 | 15.0 | 3.90 | -14 | 91 | 50 | 82 | 4.50 | -71 | 8 | 07/17/2025 07:15 PM |
| 46584 | 15.1 | 3.97 | 26 | 91 | 50 | 84 | 4.50 | -70 | 7 | 07/17/2025 07:00 PM |
| 46583 | 15.1 | 4.12 | 0 | 92 | 50 | 82 | 5.10 | -72 | 8 | 07/17/2025 06:45 PM |
| 46582 | 15.0 | 3.94 | 0 | 93 | 50 | 84 | 5.10 | -70 | 8 | 07/17/2025 06:30 PM |
| 46581 | 15.1 | 3.94 | 0 | 94 | 50 | 85 | 5.10 | -70 | 8 | 07/17/2025 06:15 PM |
| 46580 | 15.1 | 3.94 | 0 | 96 | 49 | 85 | 5.10 | -71 | 8 | 07/17/2025 06:00 PM |
| 46579 | 15.1 | 3.94 | 0 | 97 | 49 | 88 | 5.10 | -71 | 7 | 07/17/2025 05:45 PM |
| 46578 | 15.1 | 3.93 | 0 | 98 | 48 | 86 | 5.10 | -71 | 8 | 07/17/2025 05:30 PM |
| 46577 | 15.1 | 3.93 | 0 | 99 | 47 | 90 | 5.10 | -70 | 7 | 07/17/2025 05:15 PM |
| 46576 | 15.1 | 4.12 | 0 | 100 | 46 | 92 | 5.10 | -70 | 8 | 07/17/2025 05:00 PM |
| 46575 | 15.1 | 4.09 | 0 | 99 | 45 | 90 | 5.10 | -71 | 8 | 07/17/2025 04:30 PM |
| 46574 | 15.2 | 4.08 | 0 | 99 | 45 | 88 | 5.10 | -71 | 8 | 07/17/2025 04:15 PM |
| 46573 | 15.2 | 3.93 | 0 | 99 | 44 | 89 | 5.10 | -72 | 7 | 07/17/2025 04:00 PM |
| 46572 | 15.2 | 3.93 | 0 | 98 | 43 | 90 | 5.10 | -71 | 8 | 07/17/2025 03:45 PM |
| 46571 | 15.1 | 3.95 | 0 | 97 | 43 | 90 | 5.10 | -70 | 8 | 07/17/2025 03:30 PM |
| 46570 | 15.2 | 4.12 | 0 | 95 | 43 | 87 | 5.10 | -69 | 7 | 07/17/2025 03:15 PM |
| 46569 | 15.1 | 3.93 | 0 | 96 | 42 | 86 | 5.10 | -69 | 7 | 07/17/2025 03:00 PM |
| 46568 | 15.2 | 3.93 | 0 | 94 | 42 | 88 | 5.10 | -69 | 7 | 07/17/2025 02:45 PM |
| 46567 | 15.1 | 3.93 | 0 | 94 | 41 | 85 | 5.10 | -69 | 7 | 07/17/2025 02:30 PM |
| 46566 | 15.2 | 3.93 | 0 | 92 | 41 | 85 | 5.10 | -70 | 7 | 07/17/2025 02:15 PM |